createdAt,value
2022-10-02T00:02:34.226Z,70.30
2022-10-02T00:05:23.659Z,72.52
2022-10-02T00:08:24.299Z,72.29
2022-10-02T00:10:57.636Z,71.57
2022-10-02T00:13:40.754Z,73.08
2022-10-02T00:16:21.762Z,72.29
2022-10-02T00:18:51.219Z,70.12
2022-10-02T00:21:45.103Z,74.49
2022-10-02T00:24:18.037Z,72.92
2022-10-02T00:27:01.965Z,72.80
2022-10-02T00:29:44.337Z,71.77
2022-10-02T00:32:36.529Z,74.48
2022-10-02T00:35:30.285Z,75.94
2022-10-02T00:38:08.910Z,73.71
2022-10-02T00:40:47.828Z,74.46
2022-10-02T00:43:30.539Z,74.69
2022-10-02T00:46:45.095Z,76.71
2022-10-02T00:49:18.526Z,73.81
2022-10-02T00:51:56.994Z,75.61
2022-10-02T00:54:46.305Z,77.08
2022-10-02T00:57:40.045Z,77.10
2022-10-02T01:00:14.755Z,75.10
2022-10-02T01:03:03.869Z,74.09
2022-10-02T01:05:31.405Z,71.53
2022-10-02T01:07:59.458Z,72.00
2022-10-02T01:10:27.597Z,72.21
2022-10-02T01:12:57.007Z,73.08
2022-10-02T01:15:37.774Z,75.94
2022-10-02T01:18:06.733Z,73.85
2022-10-02T01:20:41.904Z,75.64
2022-10-02T01:23:50.921Z,78.14
2022-10-02T01:26:18.721Z,74.93
2022-10-02T01:28:46.391Z,74.65
2022-10-02T01:31:15.547Z,75.09
2022-10-02T01:33:45.041Z,74.36
2022-10-02T01:36:14.047Z,73.60
2022-10-02T01:38:43.417Z,73.09
2022-10-02T01:41:11.847Z,72.40
2022-10-02T01:43:53.325Z,73.19
2022-10-02T01:46:36.689Z,71.26
2022-10-02T01:49:16.304Z,74.05
2022-10-02T01:51:56.977Z,68.38
2022-10-02T01:54:56.697Z,72.33
2022-10-02T01:57:52.597Z,73.25
2022-10-02T02:00:26.390Z,70.60
2022-10-02T02:03:05.975Z,73.19
2022-10-02T02:05:48.049Z,72.11
2022-10-02T02:08:47.818Z,73.32
2022-10-02T02:11:19.136Z,70.26
2022-10-02T02:13:58.874Z,70.91
2022-10-02T02:16:33.570Z,72.19
2022-10-02T02:19:21.317Z,71.50
2022-10-02T02:21:59.127Z,70.95
2022-10-02T02:24:34.766Z,72.41
2022-10-02T02:27:04.180Z,71.47
2022-10-02T02:29:35.908Z,73.55
2022-10-02T02:32:08.082Z,73.76
2022-10-02T02:34:47.319Z,78.69
2022-10-02T02:37:19.442Z,76.94
2022-10-02T02:39:52.995Z,72.21
2022-10-02T02:42:25.992Z,69.22
2022-10-02T02:45:26.321Z,68.19
2022-10-02T02:47:57.011Z,67.53
2022-10-02T02:50:34.701Z,68.12
2022-10-02T02:53:11.715Z,68.35
2022-10-02T02:55:45.884Z,67.63
2022-10-02T02:58:49.571Z,67.38
2022-10-02T03:01:18.817Z,66.30
2022-10-02T03:03:46.879Z,66.04
2022-10-02T03:06:17.592Z,65.93
2022-10-02T03:08:47.873Z,66.28
2022-10-02T03:11:29.770Z,67.35
2022-10-02T03:14:21.288Z,66.07
2022-10-02T03:17:11.579Z,65.72
2022-10-02T03:20:00.974Z,67.56
2022-10-02T03:22:47.120Z,66.07
2022-10-02T03:25:20.712Z,65.43
2022-10-02T03:28:03.966Z,66.48
2022-10-02T03:30:32.368Z,65.00
2022-10-02T03:33:01.420Z,64.63
2022-10-02T03:35:30.318Z,64.75
2022-10-02T03:38:03.659Z,65.09
2022-10-02T03:40:31.279Z,64.08
2022-10-02T03:42:58.813Z,63.39
2022-10-02T03:45:49.923Z,62.39
2022-10-02T03:48:15.612Z,62.47
2022-10-02T03:50:42.998Z,62.91
2022-10-02T03:53:21.853Z,63.46
2022-10-02T03:56:03.161Z,62.83
2022-10-02T03:58:30.813Z,62.02
2022-10-02T04:01:04.574Z,61.66
2022-10-02T04:03:48.635Z,61.85
2022-10-02T04:06:26.600Z,60.81
2022-10-02T04:09:04.399Z,60.54
2022-10-02T04:12:00.124Z,60.77
2022-10-02T04:14:47.744Z,59.86
2022-10-02T04:17:22.752Z,60.03
2022-10-02T04:20:13.234Z,59.65
2022-10-02T04:22:48.337Z,59.66
2022-10-02T04:25:21.611Z,59.07
2022-10-02T04:27:59.345Z,58.55
2022-10-02T04:30:27.008Z,57.73
2022-10-02T04:32:54.875Z,57.37
2022-10-02T04:35:25.165Z,57.97
2022-10-02T04:38:08.995Z,59.17
2022-10-02T04:40:50.759Z,58.06
2022-10-02T04:43:24.411Z,57.15
2022-10-02T04:46:04.480Z,56.88
2022-10-02T04:48:50.754Z,56.86
2022-10-02T04:51:33.966Z,56.07
2022-10-02T04:54:24.923Z,56.23
2022-10-02T04:57:07.361Z,56.26
2022-10-02T05:00:03.235Z,56.07
2022-10-02T05:02:54.187Z,56.08
2022-10-02T05:05:55.708Z,55.18
2022-10-02T05:09:04.554Z,55.33
2022-10-02T05:11:55.732Z,54.71
2022-10-02T05:14:32.259Z,54.09
2022-10-02T05:17:05.272Z,53.21
2022-10-02T05:19:44.803Z,52.36
2022-10-02T05:22:50.314Z,53.54
2022-10-02T05:25:37.830Z,52.69
2022-10-02T05:28:19.024Z,52.27
2022-10-02T05:31:09.716Z,52.22
2022-10-02T05:34:08.840Z,51.41
2022-10-02T05:36:57.154Z,51.12
2022-10-02T05:39:48.263Z,51.37
2022-10-02T05:42:28.079Z,50.63
2022-10-02T05:45:03.132Z,50.41
2022-10-02T05:47:36.760Z,49.58
2022-10-02T05:50:17.285Z,49.34
2022-10-02T05:53:32.263Z,49.44
2022-10-02T05:56:24.982Z,50.51
2022-10-02T05:58:58.707Z,50.50
2022-10-02T06:01:32.233Z,50.30
2022-10-02T06:04:20.183Z,49.99
2022-10-02T06:06:55.296Z,47.43
2022-10-02T06:09:34.522Z,46.24
2022-10-02T06:12:05.080Z,44.15
2022-10-02T06:14:32.461Z,43.37
2022-10-02T06:17:05.764Z,42.09
2022-10-02T06:19:40.939Z,41.20
2022-10-02T06:22:14.191Z,40.34
2022-10-02T06:25:09.262Z,43.12
2022-10-02T06:27:48.718Z,37.39
2022-10-02T06:30:20.261Z,36.49
2022-10-02T06:33:06.140Z,35.71
2022-10-02T06:35:45.728Z,34.21
2022-10-02T06:38:22.740Z,33.78
2022-10-02T06:40:57.923Z,32.97
2022-10-02T06:43:40.727Z,31.20
2022-10-02T06:46:28.487Z,35.43
2022-10-02T06:49:26.657Z,34.45
2022-10-02T06:52:13.012Z,35.60
2022-10-02T06:55:09.973Z,30.24
2022-10-02T06:57:59.708Z,31.01
2022-10-02T07:00:27.677Z,28.20
2022-10-02T07:03:14.414Z,28.42
2022-10-02T07:06:00.632Z,27.71
2022-10-02T07:08:50.729Z,28.83
2022-10-02T07:11:23.996Z,27.53
2022-10-02T07:14:19.775Z,27.89
2022-10-02T07:17:05.938Z,26.96
2022-10-02T07:19:57.854Z,27.30
2022-10-02T07:22:46.036Z,26.98
2022-10-02T07:25:44.202Z,26.50
2022-10-02T07:28:15.921Z,26.25
2022-10-02T07:30:49.577Z,27.15
2022-10-02T07:33:54.713Z,27.13
2022-10-02T07:36:47.876Z,27.23
2022-10-02T07:39:39.817Z,28.27
2022-10-02T07:42:12.975Z,26.84
2022-10-02T07:44:43.625Z,27.11
2022-10-02T07:47:21.832Z,27.57
2022-10-02T07:49:49.230Z,27.74
2022-10-02T07:52:45.688Z,30.31
2022-10-02T07:55:26.352Z,31.17
2022-10-02T07:57:56.732Z,29.08
2022-10-02T08:00:25.945Z,29.70
2022-10-02T08:03:08.744Z,31.64
2022-10-02T08:05:47.036Z,31.30
2022-10-02T08:08:30.818Z,31.49
2022-10-02T08:11:39.539Z,31.27
2022-10-02T08:14:07.682Z,31.42
2022-10-02T08:16:43.708Z,32.30
2022-10-02T08:19:18.742Z,32.92
2022-10-02T08:22:15.637Z,32.42
2022-10-02T08:24:51.193Z,33.84
2022-10-02T08:27:44.179Z,34.11
2022-10-02T08:30:15.199Z,34.39
2022-10-02T08:32:44.108Z,34.11
2022-10-02T08:35:20.134Z,34.63
2022-10-02T08:38:13.329Z,34.18
2022-10-02T08:41:04.584Z,34.84
2022-10-02T08:44:16.503Z,35.63
2022-10-02T08:47:03.529Z,34.63
2022-10-02T08:49:47.667Z,34.79
2022-10-02T08:52:45.429Z,34.07
2022-10-02T08:55:42.460Z,34.43
2022-10-02T08:58:25.026Z,34.89
2022-10-02T09:01:09.702Z,35.06
2022-10-02T09:04:01.710Z,36.03
2022-10-02T09:06:44.301Z,35.77
2022-10-02T09:09:35.984Z,36.23
2022-10-02T09:12:38.276Z,35.75
2022-10-02T09:15:16.175Z,36.12
2022-10-02T09:18:18.138Z,36.67
2022-10-02T09:21:15.833Z,36.72
2022-10-02T09:24:12.244Z,37.15
2022-10-02T09:26:51.886Z,36.71
2022-10-02T09:29:52.279Z,36.41
2022-10-02T09:32:43.632Z,37.27
2022-10-02T09:35:25.068Z,36.83
2022-10-02T09:38:21.440Z,37.21
2022-10-02T09:41:24.704Z,37.21
2022-10-02T09:44:29.586Z,37.72
2022-10-02T09:47:43.843Z,37.72
2022-10-02T09:50:46.891Z,37.61
2022-10-02T09:53:32.925Z,38.23
2022-10-02T09:56:22.530Z,38.77
2022-10-02T09:58:57.427Z,38.88
2022-10-02T10:02:05.093Z,38.58
2022-10-02T10:05:06.907Z,39.22
2022-10-02T10:07:58.554Z,38.76
2022-10-02T10:10:47.255Z,39.15
2022-10-02T10:13:39.273Z,39.41
2022-10-02T10:16:14.034Z,39.25
2022-10-02T10:18:53.674Z,39.33
2022-10-02T10:21:59.398Z,39.53
2022-10-02T10:24:48.673Z,39.67
2022-10-02T10:27:43.388Z,39.66
2022-10-02T10:30:11.451Z,39.66
2022-10-02T10:32:52.540Z,39.93
2022-10-02T10:35:26.208Z,40.82
2022-10-02T10:38:38.616Z,40.04
2022-10-02T10:41:24.742Z,40.15
2022-10-02T10:44:01.413Z,40.19
2022-10-02T10:47:15.566Z,40.45
2022-10-02T10:50:04.713Z,40.12
2022-10-02T10:52:51.911Z,40.24
2022-10-02T10:55:37.803Z,39.80
2022-10-02T10:58:27.023Z,40.62
2022-10-02T11:01:04.257Z,40.70
2022-10-02T11:04:04.462Z,41.06
2022-10-02T11:07:01.082Z,41.26
2022-10-02T11:10:16.025Z,40.71
2022-10-02T11:13:19.499Z,42.06
2022-10-02T11:16:06.883Z,41.41
2022-10-02T11:18:41.105Z,41.58
2022-10-02T11:21:14.408Z,41.83
2022-10-02T11:24:00.774Z,41.94
2022-10-02T11:26:40.115Z,42.27
2022-10-02T11:29:35.614Z,42.44
2022-10-02T11:32:14.548Z,42.56
2022-10-02T11:34:54.043Z,42.28
2022-10-02T11:37:53.429Z,42.56
2022-10-02T11:40:33.285Z,42.19
2022-10-02T11:43:41.769Z,41.59
2022-10-02T11:46:28.268Z,41.96
2022-10-02T11:49:11.808Z,42.49
2022-10-02T11:51:51.245Z,42.47
2022-10-02T11:54:36.821Z,42.90
2022-10-02T11:57:16.323Z,42.98
2022-10-02T12:00:14.361Z,42.66
2022-10-02T12:03:06.140Z,42.79
2022-10-02T12:05:47.108Z,42.74
2022-10-02T12:08:44.713Z,42.18
2022-10-02T12:11:42.430Z,41.94
2022-10-02T12:14:24.536Z,42.38
2022-10-02T12:17:10.251Z,42.17
2022-10-02T12:20:13.326Z,42.05
2022-10-02T12:23:16.015Z,41.65
2022-10-02T12:26:10.842Z,40.73
2022-10-02T12:28:56.368Z,41.16
2022-10-02T12:31:54.057Z,41.39
2022-10-02T12:34:46.473Z,41.13
2022-10-02T12:37:38.348Z,41.40
2022-10-02T12:40:14.363Z,41.49
2022-10-02T12:43:17.048Z,41.39
2022-10-02T12:46:26.835Z,41.20
2022-10-02T12:49:16.678Z,41.53
2022-10-02T12:52:06.201Z,41.52
2022-10-02T12:54:45.874Z,41.24
2022-10-02T12:57:52.417Z,41.04
2022-10-02T13:00:24.557Z,41.60
2022-10-02T13:03:27.509Z,41.59
2022-10-02T13:06:26.278Z,41.73
2022-10-02T13:09:08.948Z,42.39
2022-10-02T13:12:20.975Z,42.24
2022-10-02T13:15:06.706Z,41.96
2022-10-02T13:17:46.547Z,43.15
2022-10-02T13:20:32.834Z,43.13
2022-10-02T13:23:29.455Z,43.75
2022-10-02T13:26:09.652Z,44.04
2022-10-02T13:28:51.840Z,43.64
2022-10-02T13:31:28.607Z,43.70
2022-10-02T13:34:25.274Z,43.96
2022-10-02T13:37:25.416Z,44.16
2022-10-02T13:40:18.115Z,43.92
2022-10-02T13:42:51.352Z,44.55
2022-10-02T13:45:23.498Z,44.71
2022-10-02T13:48:15.620Z,45.28
2022-10-02T13:50:50.475Z,45.13
2022-10-02T13:53:56.173Z,45.62
2022-10-02T13:56:48.112Z,45.78
2022-10-02T13:59:21.582Z,46.17
2022-10-02T14:02:07.938Z,45.11
2022-10-02T14:04:56.641Z,46.58
2022-10-02T14:07:44.639Z,46.50
2022-10-02T14:10:29.131Z,47.00
2022-10-02T14:13:28.965Z,46.39
2022-10-02T14:16:07.902Z,47.30
2022-10-02T14:18:48.324Z,47.03
2022-10-02T14:21:51.274Z,46.37
2022-10-02T14:25:01.156Z,47.12
2022-10-02T14:28:02.644Z,47.14
2022-10-02T14:31:00.702Z,48.29
2022-10-02T14:33:58.049Z,48.05
2022-10-02T14:37:17.096Z,47.73
2022-10-02T14:39:45.980Z,47.89
2022-10-02T14:42:38.394Z,48.75
2022-10-02T14:45:21.970Z,49.28
2022-10-02T14:48:14.753Z,48.76
2022-10-02T14:50:54.367Z,48.19
2022-10-02T14:53:27.775Z,48.41
2022-10-02T14:56:20.112Z,49.10
2022-10-02T14:59:10.142Z,49.37
2022-10-02T15:01:54.313Z,49.14
2022-10-02T15:04:40.055Z,48.79
2022-10-02T15:07:15.303Z,48.77
2022-10-02T15:10:04.634Z,49.50
2022-10-02T15:12:43.843Z,50.26
2022-10-02T15:15:18.143Z,50.36
2022-10-02T15:17:56.920Z,50.39
2022-10-02T15:20:26.886Z,50.20
2022-10-02T15:23:00.854Z,51.39
2022-10-02T15:25:41.519Z,51.13
2022-10-02T15:28:35.721Z,49.96
2022-10-02T15:31:36.079Z,49.53
2022-10-02T15:34:25.243Z,50.46
2022-10-02T15:37:00.827Z,50.37
2022-10-02T15:39:37.860Z,49.98
2022-10-02T15:42:09.573Z,50.69
2022-10-02T15:45:01.841Z,50.71
2022-10-02T15:47:38.496Z,50.20
2022-10-02T15:50:28.396Z,49.47
2022-10-02T15:53:18.664Z,50.03
2022-10-02T15:56:00.798Z,51.79
2022-10-02T15:58:49.693Z,50.81
2022-10-02T16:01:43.563Z,50.86
2022-10-02T16:04:23.826Z,51.13
2022-10-02T16:07:12.863Z,51.55
2022-10-02T16:09:52.495Z,52.32
2022-10-02T16:13:09.211Z,52.36
2022-10-02T16:15:49.986Z,52.00
2022-10-02T16:18:39.774Z,52.43
2022-10-02T16:21:15.540Z,52.09
2022-10-02T16:23:46.121Z,52.25
2022-10-02T16:26:25.220Z,51.67
2022-10-02T16:28:55.484Z,51.51
2022-10-02T16:31:37.489Z,51.47
2022-10-02T16:34:26.585Z,52.24
2022-10-02T16:37:09.254Z,51.94
2022-10-02T16:39:59.294Z,51.85
2022-10-02T16:42:32.887Z,51.17
2022-10-02T16:45:37.172Z,52.78
2022-10-02T16:48:15.196Z,52.80
2022-10-02T16:51:09.073Z,52.11
2022-10-02T16:53:52.132Z,52.24
2022-10-02T16:56:32.259Z,52.94
2022-10-02T16:59:12.099Z,51.70
2022-10-02T17:02:05.515Z,52.74
2022-10-02T17:05:15.356Z,51.46
2022-10-02T17:08:00.576Z,52.44
2022-10-02T17:10:53.436Z,52.53
2022-10-02T17:13:44.767Z,52.27
2022-10-02T17:16:21.044Z,52.45
2022-10-02T17:19:14.038Z,52.51
2022-10-02T17:21:48.558Z,52.14
2022-10-02T17:25:00.716Z,52.34
2022-10-02T17:27:34.456Z,52.41
2022-10-02T17:30:24.374Z,52.45
2022-10-02T17:33:03.265Z,52.78
2022-10-02T17:35:57.327Z,51.82
2022-10-02T17:38:41.063Z,52.35
2022-10-02T17:41:22.892Z,52.80
2022-10-02T17:44:18.435Z,53.37
2022-10-02T17:47:01.145Z,52.51
2022-10-02T17:49:46.885Z,53.60
2022-10-02T17:52:43.826Z,52.03
2022-10-02T17:55:59.328Z,52.21
2022-10-02T17:58:45.468Z,51.91
2022-10-02T18:01:41.034Z,52.72
2022-10-02T18:04:37.650Z,52.58
2022-10-02T18:07:26.455Z,53.18
2022-10-02T18:10:21.924Z,51.80
2022-10-02T18:13:20.647Z,53.79
2022-10-02T18:16:06.713Z,51.89
2022-10-02T18:18:40.571Z,51.92
2022-10-02T18:21:23.842Z,52.04
2022-10-02T18:24:28.875Z,53.54
2022-10-02T18:27:26.985Z,53.35
2022-10-02T18:30:09.076Z,53.08
2022-10-02T18:33:13.372Z,53.64
2022-10-02T18:36:00.339Z,52.40
2022-10-02T18:38:43.954Z,53.52
2022-10-02T18:41:41.379Z,54.28
2022-10-02T18:44:35.821Z,53.88
2022-10-02T18:47:49.783Z,54.02
2022-10-02T18:50:32.176Z,53.38
2022-10-02T18:53:30.870Z,53.20
2022-10-02T18:56:06.968Z,53.37
2022-10-02T18:58:53.616Z,51.91
2022-10-02T19:01:33.139Z,52.75
2022-10-02T19:04:22.188Z,52.24
2022-10-02T19:06:57.441Z,52.21
2022-10-02T19:09:29.698Z,52.83
2022-10-02T19:12:20.247Z,52.75
2022-10-02T19:14:48.065Z,51.97
2022-10-02T19:17:26.842Z,52.60
2022-10-02T19:19:56.466Z,51.42
2022-10-02T19:22:28.024Z,51.19
2022-10-02T19:25:19.724Z,50.63
2022-10-02T19:27:54.938Z,51.07
2022-10-02T19:30:29.095Z,52.01
2022-10-02T19:33:08.219Z,51.79
2022-10-02T19:35:44.450Z,50.71
2022-10-02T19:38:27.687Z,50.54
2022-10-02T19:40:58.694Z,50.83
2022-10-02T19:43:28.625Z,50.48
2022-10-02T19:46:03.955Z,51.17
2022-10-02T19:48:32.909Z,50.73
2022-10-02T19:51:03.345Z,50.81
2022-10-02T19:53:51.414Z,51.84
2022-10-02T19:56:26.562Z,51.03
2022-10-02T19:59:06.976Z,51.63
2022-10-02T20:01:50.163Z,51.33
2022-10-02T20:04:21.031Z,51.49
2022-10-02T20:06:53.483Z,51.07
2022-10-02T20:09:29.638Z,52.07
2022-10-02T20:12:20.502Z,51.19
2022-10-02T20:15:13.562Z,51.73
2022-10-02T20:17:41.771Z,51.22
2022-10-02T20:20:16.870Z,52.67
2022-10-02T20:22:59.115Z,52.57
2022-10-02T20:25:31.800Z,51.25
2022-10-02T20:28:05.442Z,52.70
2022-10-02T20:30:42.033Z,52.23
2022-10-02T20:33:35.524Z,53.85
2022-10-02T20:36:08.567Z,53.90
2022-10-02T20:39:01.874Z,53.24
2022-10-02T20:41:36.186Z,54.04
2022-10-02T20:44:06.590Z,52.77
2022-10-02T20:46:33.975Z,52.96
2022-10-02T20:49:40.482Z,53.48
2022-10-02T20:52:34.675Z,53.57
2022-10-02T20:55:17.955Z,55.42
2022-10-02T20:58:08.734Z,54.64
2022-10-02T21:00:51.118Z,54.53
2022-10-02T21:03:40.254Z,54.69
2022-10-02T21:06:42.009Z,56.22
2022-10-02T21:09:40.265Z,54.68
2022-10-02T21:12:13.684Z,55.71
2022-10-02T21:15:09.338Z,55.33
2022-10-02T21:18:00.081Z,55.92
2022-10-02T21:20:51.358Z,54.67
2022-10-02T21:23:21.831Z,54.65
2022-10-02T21:26:17.947Z,55.30
2022-10-02T21:29:11.697Z,54.61
2022-10-02T21:32:00.781Z,56.69
2022-10-02T21:35:00.839Z,56.68
2022-10-02T21:37:47.572Z,56.45
2022-10-02T21:40:30.124Z,55.39
2022-10-02T21:43:35.262Z,56.99
2022-10-02T21:46:31.025Z,56.73
2022-10-02T21:49:28.271Z,56.81
2022-10-02T21:52:10.938Z,55.97
2022-10-02T21:54:53.642Z,55.54
2022-10-02T21:57:41.328Z,56.42
2022-10-02T22:00:49.652Z,54.95
2022-10-02T22:03:35.279Z,55.14
2022-10-02T22:06:02.692Z,55.16
2022-10-02T22:08:50.782Z,57.23
2022-10-02T22:11:59.412Z,55.32
2022-10-02T22:15:04.332Z,56.43
2022-10-02T22:17:45.006Z,55.93
2022-10-02T22:20:15.074Z,55.67
2022-10-02T22:23:08.631Z,56.81
2022-10-02T22:25:42.643Z,55.94
2022-10-02T22:28:21.794Z,55.50
2022-10-02T22:31:03.793Z,56.00
2022-10-02T22:33:32.062Z,55.26
2022-10-02T22:36:18.184Z,56.20
2022-10-02T22:39:14.462Z,55.58
2022-10-02T22:41:50.425Z,55.71
2022-10-02T22:44:18.879Z,55.46
2022-10-02T22:47:22.846Z,56.21
2022-10-02T22:50:03.665Z,56.71
2022-10-02T22:52:43.134Z,55.80
2022-10-02T22:55:18.916Z,56.27
2022-10-02T22:58:03.297Z,56.37
2022-10-02T23:00:49.549Z,55.41
2022-10-02T23:03:30.007Z,56.81
2022-10-02T23:06:05.350Z,56.35
2022-10-02T23:08:35.515Z,55.83
2022-10-02T23:11:16.387Z,56.34
2022-10-02T23:14:25.621Z,57.03
2022-10-02T23:17:18.805Z,56.79
2022-10-02T23:19:54.916Z,55.96
2022-10-02T23:22:29.432Z,56.47
2022-10-02T23:25:49.553Z,55.35
2022-10-02T23:28:22.563Z,55.45
2022-10-02T23:31:02.686Z,55.60
2022-10-02T23:33:42.050Z,55.80
2022-10-02T23:36:24.441Z,55.68
2022-10-02T23:39:21.412Z,56.38
2022-10-02T23:41:52.675Z,55.51
2022-10-02T23:44:55.959Z,55.86
2022-10-02T23:48:02.839Z,55.91
2022-10-02T23:50:44.254Z,55.52
2022-10-02T23:53:37.839Z,56.10
2022-10-02T23:56:17.058Z,55.63
2022-10-02T23:58:58.604Z,55.41
